| Date | Time | Temp. (oF) | Dew Point (oF) | Rel. Hum. (%) | Press. (in.) | Wind Dir. | Wind Speed (mph) | Hourly Rainfall (in.) |
|
|---|---|---|---|---|---|---|---|---|---|
| 1 | 03/21 | 00:00 | 34 | 12 | 40 | 30.43 | NNE | 3 | 0.00 |
| 2 | 03/20 | 23:00 | 36 | 12 | 38 | 30.42 | NNE | 5 | 0.00 |
| 3 | 03/20 | 22:00 | 37 | 12 | 36 | 30.41 | N | 4 | 0.00 |
| 4 | 03/20 | 21:00 | 39 | 14 | 36 | 30.39 | N | 3 | 0.00 |
| 5 | 03/20 | 20:00 | 41 | 17 | 39 | 30.36 | N | 3 | 0.00 |
| 6 | 03/20 | 19:00 | 43 | 21 | 42 | 30.34 | NW | 2 | 0.00 |
| 7 | 03/20 | 18:00 | 44 | 21 | 41 | 30.32 | N | 7 | 0.00 |
| 8 | 03/20 | 17:00 | 42 | 23 | 47 | 30.32 | ENE | 9 | 0.00 |
| 9 | 03/20 | 16:00 | 42 | 23 | 47 | 30.32 | N | 8 | 0.00 |
| 10 | 03/20 | 15:00 | 42 | 23 | 47 | 30.32 | NNE | 8 | 0.00 |
| 11 | 03/20 | 14:00 | 41 | 22 | 48 | 30.32 | NNE | 10 | 0.00 |
| 12 | 03/20 | 13:00 | 40 | 22 | 50 | 30.32 | N | 7 | 0.00 |
| 13 | 03/20 | 12:00 | 41 | 24 | 52 | 30.31 | ENE | 7 | 0.00 |
| 14 | 03/20 | 11:00 | 41 | 24 | 51 | 30.31 | NE | 8 | 0.00 |
| 15 | 03/20 | 10:00 | 39 | 25 | 57 | 30.31 | NNE | 8 | 0.00 |
| 16 | 03/20 | 09:00 | 37 | 25 | 63 | 30.29 | N | 4 | 0.00 |
| 17 | 03/20 | 08:00 | 34 | 24 | 68 | 30.27 | N | 5 | 0.00 |
| 18 | 03/20 | 07:00 | 34 | 26 | 75 | 30.25 | NNW | 4 | 0.00 |
| 19 | 03/20 | 06:00 | 35 | 27 | 74 | 30.23 | NNE | 4 | 0.00 |
| 20 | 03/20 | 05:00 | 37 | 29 | 73 | 30.21 | N | 4 | 0.00 |
| 21 | 03/20 | 04:00 | 38 | 32 | 82 | 30.19 | NNE | 6 | 0.00 |
| 22 | 03/20 | 03:00 | 40 | 35 | 84 | 30.19 | NE | 5 | 0.00 |
| 23 | 03/20 | 02:00 | 43 | 39 | 88 | 30.16 | NNE | 6 | 0.00 |
| 24 | 03/20 | 01:00 | 40 | 39 | 97 | 30.13 | E | 0 | 0.00 |